Terminal Aerodrome Forecast
Issued by NWS Charleston, WV

Current Version | Previous Version | Text Only | Print | Product List | Glossary Off
Versions: 1 2 3 4 5 6 7 8 9 10 11 12 13 14 15 16 17 18 19 20 21 22 23 24 25

000
FTUS41 KRLX 200800 AAA
TAFBKW
TAF AMD
KBKW 200838Z 2009/2106 15008KT P6SM OVC040
     FM201100 14005KT P6SM BKN015
     FM201500 15007KT P6SM BKN025
     FM201700 15007KT P6SM BKN035=

USA.gov is the U.S. government's official web portal to all federal, state and local government web resources and services.